createdAt,value
2018-04-17T00:00:26.060Z,0.00
2018-04-17T00:01:26.224Z,0.00
2018-04-17T00:02:26.396Z,0.00
2018-04-17T00:03:26.561Z,0.00
2018-04-17T00:04:26.726Z,0.00
2018-04-17T00:05:26.903Z,0.00
2018-04-17T00:06:27.069Z,0.00
2018-04-17T00:07:27.235Z,0.00
2018-04-17T00:08:27.406Z,0.00
2018-04-17T00:09:27.574Z,0.00
2018-04-17T00:10:27.752Z,0.00
2018-04-17T00:11:27.906Z,0.00
2018-04-17T00:12:28.080Z,0.00
2018-04-17T00:13:28.243Z,0.00
2018-04-17T00:14:28.788Z,0.00
2018-04-17T00:15:28.969Z,0.00
2018-04-17T00:16:29.155Z,0.00
2018-04-17T00:17:29.380Z,0.00
2018-04-17T00:18:29.479Z,0.00
2018-04-17T00:19:29.728Z,0.00
2018-04-17T00:20:29.755Z,0.00
2018-04-17T00:21:29.959Z,0.00
2018-04-17T00:22:30.122Z,0.00
2018-04-17T00:23:29.893Z,0.00
2018-04-17T00:24:30.071Z,0.00
2018-04-17T00:25:30.232Z,0.00
2018-04-17T00:26:31.248Z,0.00
2018-04-17T00:27:30.559Z,0.00
2018-04-17T00:28:30.733Z,0.00
2018-04-17T00:29:30.899Z,0.00
2018-04-17T00:30:31.067Z,0.00
2018-04-17T00:31:31.235Z,0.00
2018-04-17T00:32:31.407Z,0.00
2018-04-17T00:33:31.577Z,0.00
2018-04-17T00:34:31.747Z,0.00
2018-04-17T00:35:31.910Z,0.00
2018-04-17T00:36:32.082Z,0.00
2018-04-17T00:37:32.255Z,0.00
2018-04-17T00:38:32.471Z,0.00
2018-04-17T00:39:32.592Z,0.00
2018-04-17T00:40:32.761Z,0.00
2018-04-17T00:41:32.935Z,0.00
2018-04-17T00:42:33.109Z,0.00
2018-04-17T00:43:33.269Z,0.00
2018-04-17T00:44:33.440Z,0.00
2018-04-17T00:45:33.603Z,0.00
2018-04-17T00:46:33.772Z,0.00
2018-04-17T00:47:33.939Z,0.00
2018-04-17T00:48:34.101Z,0.00
2018-04-17T00:49:34.280Z,0.00
2018-04-17T00:50:34.440Z,0.00
2018-04-17T00:51:34.613Z,0.00
2018-04-17T00:52:34.775Z,0.00
2018-04-17T00:53:34.949Z,0.00
2018-04-17T00:54:35.117Z,0.00
2018-04-17T00:55:35.279Z,0.00
2018-04-17T00:56:35.444Z,0.00
2018-04-17T00:57:35.609Z,0.00
2018-04-17T00:58:35.781Z,0.00
2018-04-17T00:59:35.989Z,0.00
2018-04-17T01:00:36.118Z,0.00
2018-04-17T01:01:36.282Z,0.00
2018-04-17T01:02:36.458Z,0.00
2018-04-17T01:03:36.619Z,0.00
2018-04-17T01:04:36.787Z,0.00
2018-04-17T01:05:36.959Z,0.00
2018-04-17T01:06:37.126Z,0.00
2018-04-17T01:07:37.305Z,0.00
2018-04-17T01:08:37.474Z,0.00
2018-04-17T01:09:37.642Z,0.00
2018-04-17T01:10:37.807Z,0.00
2018-04-17T01:11:37.975Z,0.00
2018-04-17T01:12:38.149Z,0.00
2018-04-17T01:13:38.317Z,0.00
2018-04-17T01:14:38.490Z,0.00
2018-04-17T01:15:38.656Z,0.00
2018-04-17T01:16:38.827Z,0.00
2018-04-17T01:17:38.994Z,0.00
2018-04-17T01:18:39.158Z,0.00
2018-04-17T01:19:39.324Z,0.00
2018-04-17T01:20:39.492Z,0.00
2018-04-17T01:21:39.662Z,0.00
2018-04-17T01:22:39.831Z,0.00
2018-04-17T01:23:39.997Z,0.00
2018-04-17T01:24:40.162Z,0.00
2018-04-17T01:25:40.335Z,0.00
2018-04-17T01:26:40.504Z,0.00
2018-04-17T01:27:40.673Z,0.00
2018-04-17T01:28:40.846Z,0.00
2018-04-17T01:29:41.011Z,0.00
2018-04-17T01:30:41.189Z,0.00
2018-04-17T01:31:41.355Z,0.00
2018-04-17T01:32:41.519Z,0.00
2018-04-17T01:33:41.692Z,0.00
2018-04-17T01:34:41.853Z,0.00
2018-04-17T01:35:42.021Z,0.00
2018-04-17T01:36:42.199Z,0.00
2018-04-17T01:37:42.362Z,0.00
2018-04-17T01:38:42.532Z,0.00
2018-04-17T01:39:42.703Z,0.00
2018-04-17T01:40:42.870Z,0.00
2018-04-17T01:41:43.033Z,0.00
2018-04-17T01:42:43.194Z,0.00
2018-04-17T01:43:43.365Z,0.00
2018-04-17T01:44:43.528Z,0.00
2018-04-17T01:45:43.702Z,0.00
2018-04-17T01:46:43.871Z,0.00
2018-04-17T01:47:44.036Z,0.00
2018-04-17T01:48:44.203Z,0.00
2018-04-17T01:49:44.371Z,0.00
2018-04-17T01:50:44.539Z,0.00
2018-04-17T01:51:44.706Z,0.00
2018-04-17T01:52:44.881Z,0.00
2018-04-17T01:53:45.052Z,0.00
2018-04-17T01:54:45.217Z,0.00
2018-04-17T01:55:45.390Z,0.00
2018-04-17T01:56:45.630Z,0.00
2018-04-17T01:57:45.714Z,0.00
2018-04-17T01:58:45.884Z,0.00
2018-04-17T01:59:46.056Z,0.00
2018-04-17T02:00:46.225Z,0.00
2018-04-17T02:01:46.388Z,0.00
2018-04-17T02:02:46.609Z,0.00
2018-04-17T02:03:46.711Z,0.00
2018-04-17T02:04:46.881Z,0.00
2018-04-17T02:05:47.046Z,0.00
2018-04-17T02:06:47.218Z,0.00
2018-04-17T02:07:47.383Z,0.00
2018-04-17T02:08:47.569Z,0.00
2018-04-17T02:09:47.712Z,0.00
2018-04-17T02:10:47.885Z,0.00
2018-04-17T02:11:48.052Z,0.00
2018-04-17T02:12:48.217Z,0.00
2018-04-17T02:13:48.384Z,0.00
2018-04-17T02:14:48.557Z,0.00
2018-04-17T02:15:48.722Z,0.00
2018-04-17T02:16:48.893Z,0.00
2018-04-17T02:17:49.058Z,0.00
2018-04-17T02:18:49.225Z,0.00
2018-04-17T02:19:49.401Z,0.00
2018-04-17T02:20:49.572Z,0.00
2018-04-17T02:21:49.735Z,0.00
2018-04-17T02:22:49.905Z,0.00
2018-04-17T02:23:50.083Z,0.00
2018-04-17T02:24:50.241Z,0.00
2018-04-17T02:25:50.417Z,0.00
2018-04-17T02:26:50.578Z,0.00
2018-04-17T02:27:50.750Z,0.00
2018-04-17T02:28:50.911Z,0.00
2018-04-17T02:29:51.080Z,0.00
2018-04-17T02:30:51.248Z,0.00
2018-04-17T02:31:51.419Z,0.00
2018-04-17T02:32:51.587Z,0.00
2018-04-17T02:33:51.753Z,0.00
2018-04-17T02:34:51.922Z,0.00
2018-04-17T02:35:52.089Z,0.00
2018-04-17T02:36:52.257Z,0.00
2018-04-17T02:37:52.430Z,0.00
2018-04-17T02:38:52.592Z,0.00
2018-04-17T02:39:52.758Z,0.00
2018-04-17T02:40:52.923Z,0.00
2018-04-17T02:41:53.186Z,0.00
2018-04-17T02:42:53.245Z,0.00
2018-04-17T02:43:53.414Z,0.00
2018-04-17T02:44:53.580Z,0.00
2018-04-17T02:45:53.749Z,0.00
2018-04-17T02:46:53.931Z,0.00
2018-04-17T02:47:54.087Z,0.00
2018-04-17T02:48:54.255Z,0.00
2018-04-17T02:49:55.286Z,0.00
2018-04-17T02:50:54.579Z,0.00
2018-04-17T02:51:54.743Z,0.00
2018-04-17T02:52:54.913Z,0.00
2018-04-17T02:53:55.073Z,0.00
2018-04-17T02:54:55.783Z,0.00
2018-04-17T02:55:55.458Z,0.00
2018-04-17T02:56:55.627Z,0.00
2018-04-17T02:57:55.792Z,0.00
2018-04-17T02:58:55.962Z,0.00
2018-04-17T02:59:56.145Z,0.00
2018-04-17T03:00:56.387Z,0.00
2018-04-17T03:01:56.700Z,0.00
2018-04-17T03:02:56.656Z,0.00
2018-04-17T03:03:56.831Z,0.00
2018-04-17T03:04:56.996Z,0.00
2018-04-17T03:05:57.162Z,0.00
2018-04-17T03:06:57.338Z,0.00
2018-04-17T03:07:57.507Z,0.00
2018-04-17T03:08:57.681Z,0.00
2018-04-17T03:09:57.844Z,0.00
2018-04-17T03:10:58.012Z,0.00
2018-04-17T03:11:58.178Z,0.00
2018-04-17T03:12:58.344Z,0.00
2018-04-17T03:13:58.506Z,0.00
2018-04-17T03:14:58.667Z,0.00
2018-04-17T03:15:58.840Z,0.00
2018-04-17T03:16:59.006Z,0.00
2018-04-17T03:17:59.176Z,0.00
2018-04-17T03:18:59.342Z,0.00
2018-04-17T03:19:59.511Z,0.00
2018-04-17T03:20:59.677Z,0.00
2018-04-17T03:21:59.841Z,0.00
2018-04-17T03:23:00.008Z,0.00
2018-04-17T03:24:00.173Z,0.00
2018-04-17T03:25:00.347Z,0.00
2018-04-17T03:26:00.514Z,0.00
2018-04-17T03:27:00.684Z,0.00
2018-04-17T03:28:00.854Z,0.00
2018-04-17T03:29:01.016Z,0.00
2018-04-17T03:30:01.190Z,0.00
2018-04-17T03:31:01.351Z,0.00
2018-04-17T03:32:01.522Z,0.00
2018-04-17T03:33:01.696Z,0.00
2018-04-17T03:34:01.862Z,0.00
2018-04-17T03:35:02.031Z,0.00
2018-04-17T03:36:02.206Z,0.00
2018-04-17T03:37:02.354Z,0.00
2018-04-17T03:38:02.524Z,0.00
2018-04-17T03:39:02.687Z,0.00
2018-04-17T03:40:02.854Z,0.00
2018-04-17T03:41:03.021Z,0.00
2018-04-17T03:42:03.192Z,0.00
2018-04-17T03:43:03.356Z,0.00
2018-04-17T03:44:03.532Z,0.00
2018-04-17T03:45:03.695Z,0.00
2018-04-17T03:46:03.869Z,0.00
2018-04-17T03:47:04.032Z,0.00
2018-04-17T03:48:04.200Z,0.00
2018-04-17T03:49:04.364Z,0.00
2018-04-17T03:50:04.526Z,0.00
2018-04-17T03:51:04.693Z,0.00
2018-04-17T03:52:04.863Z,0.00
2018-04-17T03:53:05.077Z,0.00
2018-04-17T03:54:05.223Z,0.00
2018-04-17T03:55:05.387Z,0.00
2018-04-17T03:56:05.554Z,0.00
2018-04-17T03:57:05.723Z,0.00
2018-04-17T03:58:05.896Z,0.00
2018-04-17T03:59:06.061Z,0.00
2018-04-17T04:00:06.227Z,0.00
2018-04-17T04:01:06.401Z,0.00
2018-04-17T04:02:06.565Z,0.00
2018-04-17T04:03:06.732Z,0.00
2018-04-17T04:04:06.900Z,0.00
2018-04-17T04:05:07.062Z,0.00
2018-04-17T04:06:07.245Z,0.00
2018-04-17T04:07:07.383Z,0.00
2018-04-17T04:08:07.555Z,0.00
2018-04-17T04:09:07.725Z,0.00
2018-04-17T04:10:07.894Z,0.00
2018-04-17T04:11:08.057Z,0.00
2018-04-17T04:12:08.234Z,0.00
2018-04-17T04:13:08.401Z,0.00
2018-04-17T04:14:08.575Z,0.00
2018-04-17T04:15:08.743Z,0.00
2018-04-17T04:16:08.913Z,0.00
2018-04-17T04:17:09.079Z,0.00
2018-04-17T04:18:09.240Z,0.00
2018-04-17T04:19:09.412Z,0.00
2018-04-17T04:20:09.576Z,0.00
2018-04-17T04:21:09.743Z,0.00
2018-04-17T04:22:09.913Z,0.00
2018-04-17T04:23:10.084Z,0.00
2018-04-17T04:24:10.247Z,0.00
2018-04-17T04:25:10.420Z,0.00
2018-04-17T04:26:10.586Z,5.63
2018-04-17T04:27:10.753Z,5.63
2018-04-17T04:28:10.931Z,5.63
2018-04-17T04:29:11.090Z,5.63
2018-04-17T04:30:11.259Z,5.63
2018-04-17T04:31:11.428Z,5.63
2018-04-17T04:32:11.641Z,5.63
2018-04-17T04:33:11.782Z,5.63
2018-04-17T04:34:11.953Z,5.63
2018-04-17T04:35:12.115Z,5.63
2018-04-17T04:36:12.289Z,11.25
2018-04-17T04:37:12.457Z,11.25
2018-04-17T04:38:12.623Z,11.25
2018-04-17T04:39:12.795Z,11.25
2018-04-17T04:40:12.968Z,11.25
2018-04-17T04:41:13.125Z,11.25
2018-04-17T04:42:13.297Z,11.25
2018-04-17T04:43:13.461Z,11.25
2018-04-17T04:44:13.642Z,16.88
2018-04-17T04:45:13.803Z,16.88
2018-04-17T04:46:13.972Z,16.88
2018-04-17T04:47:14.137Z,16.88
2018-04-17T04:48:14.302Z,16.88
2018-04-17T04:49:14.471Z,16.88
2018-04-17T04:50:14.645Z,22.50
2018-04-17T04:51:14.815Z,22.50
2018-04-17T04:52:14.991Z,22.50
2018-04-17T04:53:15.158Z,22.50
2018-04-17T04:54:15.329Z,22.50
2018-04-17T04:55:15.496Z,28.13
2018-04-17T04:56:15.661Z,28.13
2018-04-17T04:57:15.832Z,28.13
2018-04-17T04:58:16.005Z,28.13
2018-04-17T04:59:16.174Z,28.13
2018-04-17T05:00:16.344Z,28.13
2018-04-17T05:01:16.515Z,33.75
2018-04-17T05:02:16.682Z,33.75
2018-04-17T05:03:16.851Z,33.75
2018-04-17T05:04:17.015Z,33.75
2018-04-17T05:05:17.191Z,39.38
2018-04-17T05:06:17.362Z,39.38
2018-04-17T05:07:17.522Z,39.38
2018-04-17T05:08:17.691Z,39.38
2018-04-17T05:09:17.855Z,39.38
2018-04-17T05:10:18.029Z,39.38
2018-04-17T05:11:18.193Z,45.00
2018-04-17T05:12:18.363Z,45.00
2018-04-17T05:13:18.532Z,50.63
2018-04-17T05:14:18.699Z,45.00
2018-04-17T05:15:18.866Z,45.00
2018-04-17T05:16:19.036Z,45.00
2018-04-17T05:17:19.199Z,45.00
2018-04-17T05:18:19.369Z,50.63
2018-04-17T05:19:19.539Z,50.63
2018-04-17T05:20:19.703Z,50.63
2018-04-17T05:21:19.882Z,50.63
2018-04-17T05:22:20.043Z,56.25
2018-04-17T05:23:20.206Z,61.88
2018-04-17T05:24:20.404Z,61.88
2018-04-17T05:25:20.570Z,61.88
2018-04-17T05:26:20.737Z,61.88
2018-04-17T05:27:20.907Z,61.88
2018-04-17T05:28:21.077Z,61.88
2018-04-17T05:29:21.252Z,67.50
2018-04-17T05:30:21.421Z,67.50
2018-04-17T05:31:21.586Z,73.13
2018-04-17T05:32:21.750Z,73.13
2018-04-17T05:33:21.920Z,84.38
2018-04-17T05:34:22.092Z,90.00
2018-04-17T05:35:22.264Z,90.00
2018-04-17T05:36:22.428Z,90.00
2018-04-17T05:37:22.595Z,90.00
2018-04-17T05:38:22.763Z,90.00
2018-04-17T05:39:22.935Z,90.00
2018-04-17T05:40:23.096Z,84.38
2018-04-17T05:41:23.261Z,84.38
2018-04-17T05:42:23.434Z,95.63
2018-04-17T05:43:23.599Z,84.38
2018-04-17T05:44:23.766Z,95.63
2018-04-17T05:45:23.933Z,95.63
2018-04-17T05:46:24.098Z,101.25
2018-04-17T05:47:24.264Z,95.63
2018-04-17T05:48:24.432Z,101.25
2018-04-17T05:49:24.600Z,101.25
2018-04-17T05:50:24.771Z,95.63
2018-04-17T05:51:24.933Z,95.63
2018-04-17T05:52:25.106Z,95.63
2018-04-17T05:53:25.277Z,95.63
2018-04-17T05:54:25.443Z,101.25
2018-04-17T05:55:25.618Z,106.88
2018-04-17T05:56:25.778Z,101.25
2018-04-17T05:57:25.945Z,112.50
2018-04-17T05:58:26.117Z,112.50
2018-04-17T05:59:26.284Z,106.88
2018-04-17T06:00:26.453Z,106.88
2018-04-17T06:01:26.625Z,106.88
2018-04-17T06:02:26.792Z,106.88
2018-04-17T06:03:26.961Z,106.88
2018-04-17T06:04:27.137Z,106.88
2018-04-17T06:05:27.301Z,106.88
2018-04-17T06:06:27.467Z,106.88
2018-04-17T06:07:27.643Z,106.88
2018-04-17T06:08:27.806Z,106.88
2018-04-17T06:09:27.977Z,106.88
2018-04-17T06:10:28.142Z,106.88
2018-04-17T06:11:28.315Z,106.88
2018-04-17T06:12:28.482Z,106.88
2018-04-17T06:13:28.654Z,112.50
2018-04-17T06:14:28.821Z,112.50
2018-04-17T06:15:29.001Z,123.75
2018-04-17T06:16:29.162Z,135.00
2018-04-17T06:17:29.334Z,140.63
2018-04-17T06:18:29.502Z,140.63
2018-04-17T06:19:29.672Z,140.63
2018-04-17T06:20:29.835Z,146.25
2018-04-17T06:21:30.004Z,146.25
2018-04-17T06:22:30.172Z,146.25
2018-04-17T06:23:30.343Z,135.00
2018-04-17T06:24:30.507Z,146.25
2018-04-17T06:25:30.673Z,163.13
2018-04-17T06:26:30.845Z,163.13
2018-04-17T06:27:31.014Z,163.13
2018-04-17T06:28:31.187Z,163.13
2018-04-17T06:29:31.364Z,163.13
2018-04-17T06:30:31.529Z,163.13
2018-04-17T06:31:31.699Z,157.50
2018-04-17T06:32:31.871Z,157.50
2018-04-17T06:33:32.049Z,163.13
2018-04-17T06:34:32.220Z,157.50
2018-04-17T06:35:32.389Z,151.88
2018-04-17T06:36:32.556Z,163.13
2018-04-17T06:37:32.733Z,163.13
2018-04-17T06:38:32.909Z,146.25
2018-04-17T06:39:33.069Z,168.75
2018-04-17T06:40:33.238Z,168.75
2018-04-17T06:41:33.410Z,168.75
2018-04-17T06:42:33.575Z,174.38
2018-04-17T06:43:33.752Z,168.75
2018-04-17T06:44:33.929Z,185.63
2018-04-17T06:45:34.099Z,191.25
2018-04-17T06:46:34.264Z,191.25
2018-04-17T06:47:34.512Z,191.25
2018-04-17T06:48:34.605Z,196.88
2018-04-17T06:49:34.779Z,196.88
2018-04-17T06:50:34.951Z,191.25
2018-04-17T06:51:35.119Z,191.25
2018-04-17T06:52:35.347Z,185.63
2018-04-17T06:53:35.464Z,185.63
2018-04-17T06:54:35.634Z,185.63
2018-04-17T06:55:35.801Z,185.63
2018-04-17T06:56:35.968Z,185.63
2018-04-17T06:57:36.135Z,185.63
2018-04-17T06:58:36.306Z,185.63
2018-04-17T06:59:36.481Z,191.25
2018-04-17T07:00:36.658Z,191.25
2018-04-17T07:01:36.817Z,191.25
2018-04-17T07:02:37.003Z,196.88
2018-04-17T07:03:37.187Z,180.00
2018-04-17T07:04:37.365Z,180.00
2018-04-17T07:05:37.529Z,208.13
2018-04-17T07:06:37.690Z,196.88
2018-04-17T07:07:37.870Z,202.50
2018-04-17T07:08:38.035Z,202.50
2018-04-17T07:09:38.201Z,196.88
2018-04-17T07:10:38.382Z,202.50
2018-04-17T07:11:38.637Z,202.50
2018-04-17T07:12:38.739Z,202.50
2018-04-17T07:13:38.906Z,202.50
2018-04-17T07:14:39.075Z,208.13
2018-04-17T07:15:39.248Z,208.13
2018-04-17T07:16:39.414Z,213.75
2018-04-17T07:17:39.586Z,213.75
2018-04-17T07:18:39.748Z,213.75
2018-04-17T07:19:39.926Z,213.75
2018-04-17T07:20:40.093Z,213.75
2018-04-17T07:21:40.277Z,219.38
2018-04-17T07:22:40.465Z,219.38
2018-04-17T07:23:40.627Z,219.38
2018-04-17T07:24:40.781Z,219.38
2018-04-17T07:25:40.942Z,219.38
2018-04-17T07:26:41.112Z,225.00
2018-04-17T07:27:41.281Z,225.00
2018-04-17T07:28:41.467Z,225.00
2018-04-17T07:29:41.634Z,225.00
2018-04-17T07:30:41.810Z,230.63
2018-04-17T07:31:41.982Z,230.63
2018-04-17T07:32:42.149Z,230.63
2018-04-17T07:33:42.326Z,230.63
2018-04-17T07:34:42.535Z,236.25
2018-04-17T07:35:42.661Z,236.25
2018-04-17T07:36:42.834Z,236.25
2018-04-17T07:37:43.003Z,236.25
2018-04-17T07:38:43.181Z,236.25
2018-04-17T07:39:43.345Z,241.88
2018-04-17T07:40:43.534Z,241.88
2018-04-17T07:41:43.703Z,241.88
2018-04-17T07:42:43.876Z,247.50
2018-04-17T07:43:44.038Z,247.50
2018-04-17T07:44:44.208Z,247.50
2018-04-17T07:45:44.393Z,253.13
2018-04-17T07:46:44.566Z,253.13
2018-04-17T07:47:44.749Z,253.13
2018-04-17T07:48:44.923Z,258.75
2018-04-17T07:49:45.092Z,258.75
2018-04-17T07:50:45.261Z,258.75
2018-04-17T07:51:45.428Z,258.75
2018-04-17T07:52:45.602Z,264.38
2018-04-17T07:53:45.793Z,264.38
2018-04-17T07:54:45.972Z,270.00
2018-04-17T07:55:46.193Z,270.00
2018-04-17T07:56:46.312Z,270.00
2018-04-17T07:57:46.492Z,275.63
2018-04-17T07:58:46.651Z,275.63
2018-04-17T07:59:46.823Z,281.25
2018-04-17T08:00:46.994Z,286.88
2018-04-17T08:01:47.169Z,292.50
2018-04-17T08:02:47.341Z,292.50
2018-04-17T08:03:47.513Z,298.13
2018-04-17T08:04:47.688Z,298.13
2018-04-17T08:05:47.863Z,303.75
2018-04-17T08:06:48.029Z,303.75
2018-04-17T08:07:48.206Z,309.38
2018-04-17T08:08:48.370Z,315.00
2018-04-17T08:09:48.557Z,315.00
2018-04-17T08:10:48.727Z,320.63
2018-04-17T08:11:48.907Z,326.25
2018-04-17T08:12:49.069Z,331.88
2018-04-17T08:13:49.243Z,331.88
2018-04-17T08:14:49.414Z,337.50
2018-04-17T08:15:49.598Z,343.13
2018-04-17T08:16:49.778Z,348.75
2018-04-17T08:17:49.947Z,354.38
2018-04-17T08:18:50.117Z,354.38
2018-04-17T08:19:50.286Z,354.38
2018-04-17T08:20:50.462Z,365.63
2018-04-17T08:21:50.636Z,360.00
2018-04-17T08:22:50.816Z,365.63
2018-04-17T08:23:50.990Z,376.88
2018-04-17T08:24:51.166Z,382.50
2018-04-17T08:25:51.338Z,388.13
2018-04-17T08:26:51.512Z,388.13
2018-04-17T08:27:51.730Z,399.38
2018-04-17T08:28:51.854Z,405.00
2018-04-17T08:29:52.028Z,410.63
2018-04-17T08:30:52.200Z,416.25
2018-04-17T08:31:52.378Z,421.88
2018-04-17T08:32:52.545Z,427.50
2018-04-17T08:33:52.719Z,433.13
2018-04-17T08:34:52.891Z,444.38
2018-04-17T08:35:53.059Z,461.25
2018-04-17T08:36:53.282Z,483.75
2018-04-17T08:37:53.418Z,489.38
2018-04-17T08:38:53.594Z,495.00
2018-04-17T08:39:53.774Z,500.63
2018-04-17T08:40:53.948Z,506.25
2018-04-17T08:41:54.125Z,511.88
2018-04-17T08:42:54.309Z,523.13
2018-04-17T08:43:54.488Z,528.75
2018-04-17T08:44:54.661Z,534.38
2018-04-17T08:45:54.837Z,534.38
2018-04-17T08:46:55.005Z,540.00
2018-04-17T08:47:55.188Z,545.63
2018-04-17T08:49:09.943Z,545.63
2018-04-17T08:49:55.611Z,545.63
2018-04-17T08:50:55.791Z,551.25
2018-04-17T08:51:55.962Z,556.88
2018-04-17T08:52:56.142Z,568.13
2018-04-17T08:53:56.308Z,568.13
2018-04-17T08:54:56.489Z,573.75
2018-04-17T08:55:56.669Z,573.75
2018-04-17T08:56:56.840Z,579.38
2018-04-17T08:57:57.023Z,585.00
2018-04-17T08:58:57.198Z,596.25
2018-04-17T08:59:57.374Z,590.63
2018-04-17T09:00:57.556Z,596.25
2018-04-17T09:01:57.735Z,601.88
2018-04-17T09:02:57.911Z,601.88
2018-04-17T09:03:58.099Z,607.50
2018-04-17T09:04:58.278Z,613.13
2018-04-17T09:05:58.451Z,618.75
2018-04-17T09:06:58.632Z,618.75
2018-04-17T09:07:58.806Z,630.00
2018-04-17T09:08:58.992Z,630.00
2018-04-17T09:09:59.172Z,635.63
2018-04-17T09:10:59.357Z,635.63
2018-04-17T09:11:59.586Z,641.25
2018-04-17T09:13:04.853Z,652.50
2018-04-17T09:13:59.953Z,658.13
2018-04-17T09:15:00.139Z,663.75
2018-04-17T09:16:00.332Z,686.25
2018-04-17T09:17:00.509Z,675.00
2018-04-17T09:18:00.710Z,669.38
2018-04-17T09:19:00.893Z,675.00
2018-04-17T09:20:01.074Z,680.63
2018-04-17T09:21:01.258Z,686.25
2018-04-17T09:22:01.434Z,686.25
2018-04-17T09:23:02.462Z,691.88
2018-04-17T09:24:01.794Z,686.25
2018-04-17T09:25:01.954Z,686.25
2018-04-17T09:26:02.142Z,697.50
2018-04-17T09:27:02.327Z,697.50
2018-04-17T09:28:02.510Z,708.75
2018-04-17T09:29:02.690Z,720.00
2018-04-17T09:30:02.876Z,725.63
2018-04-17T09:31:03.063Z,725.63
2018-04-17T09:32:03.256Z,731.25
2018-04-17T09:33:03.440Z,742.50
2018-04-17T09:34:03.624Z,748.13
2018-04-17T09:35:03.811Z,748.13
2018-04-17T09:36:04.080Z,748.13
2018-04-17T09:37:04.188Z,753.75
2018-04-17T09:38:04.381Z,770.63
2018-04-17T09:39:04.572Z,770.63
2018-04-17T09:40:04.754Z,770.63
2018-04-17T09:41:04.944Z,781.88
2018-04-17T09:42:05.131Z,781.88
2018-04-17T09:43:05.321Z,781.88
2018-04-17T09:44:05.517Z,793.13
2018-04-17T09:45:05.710Z,810.00
2018-04-17T09:46:05.893Z,815.63
2018-04-17T09:47:06.073Z,815.63
2018-04-17T09:48:06.265Z,810.00
2018-04-17T09:49:06.450Z,810.00
2018-04-17T09:50:06.637Z,810.00
2018-04-17T09:51:06.823Z,821.25
2018-04-17T09:52:07.014Z,821.25
2018-04-17T09:53:07.204Z,838.13
2018-04-17T09:54:07.392Z,843.75
2018-04-17T09:55:07.581Z,843.75
2018-04-17T09:56:07.764Z,855.00
2018-04-17T09:57:07.952Z,860.63
2018-04-17T09:58:08.144Z,866.25
2018-04-17T09:59:08.334Z,877.50
2018-04-17T10:00:08.526Z,877.50
2018-04-17T10:01:08.715Z,883.13
2018-04-17T10:02:08.905Z,883.13
2018-04-17T10:03:09.094Z,894.38
2018-04-17T10:04:09.283Z,911.25
2018-04-17T10:05:09.477Z,916.88
2018-04-17T10:06:09.663Z,939.38
2018-04-17T10:07:09.859Z,933.75
2018-04-17T10:08:10.047Z,945.00
2018-04-17T10:09:10.240Z,950.63
2018-04-17T10:10:10.423Z,956.25
2018-04-17T10:11:10.609Z,973.13
2018-04-17T10:12:10.807Z,984.38
2018-04-17T10:13:10.999Z,1006.88
2018-04-17T10:14:11.191Z,1018.13
2018-04-17T10:15:11.376Z,1018.13
2018-04-17T10:16:11.583Z,1035.00
2018-04-17T10:17:11.812Z,1040.63
2018-04-17T10:18:11.972Z,1051.88
2018-04-17T10:19:12.164Z,1023.75
2018-04-17T10:20:12.364Z,950.63
2018-04-17T10:21:12.553Z,1012.50
2018-04-17T10:22:12.759Z,995.63
2018-04-17T10:23:12.952Z,804.38
2018-04-17T10:24:13.140Z,950.63
2018-04-17T10:25:13.337Z,961.88
2018-04-17T10:26:13.536Z,961.88
2018-04-17T10:27:13.717Z,1068.75
2018-04-17T10:28:13.907Z,1147.50
2018-04-17T10:29:14.098Z,1265.63
2018-04-17T10:30:14.295Z,1372.50
2018-04-17T10:31:14.526Z,1462.50
2018-04-17T10:32:14.670Z,1580.63
2018-04-17T10:33:14.866Z,1721.25
2018-04-17T10:34:15.054Z,1895.63
2018-04-17T10:35:15.255Z,2019.38
2018-04-17T10:36:15.442Z,2081.25
2018-04-17T10:37:15.632Z,2272.50
2018-04-17T10:38:15.821Z,2390.63
2018-04-17T10:39:16.015Z,2508.75
2018-04-17T10:40:16.213Z,2778.75
2018-04-17T10:41:16.401Z,2947.50
2018-04-17T10:42:16.598Z,3003.75
2018-04-17T10:43:16.787Z,3088.13
2018-04-17T10:44:16.976Z,3037.50
2018-04-17T10:45:17.170Z,3015.00
2018-04-17T10:46:17.358Z,2728.13
2018-04-17T10:47:17.551Z,3110.63
2018-04-17T10:48:17.743Z,3065.63
2018-04-17T10:49:17.934Z,3054.38
2018-04-17T10:50:18.124Z,3065.63
2018-04-17T10:51:18.322Z,2902.50
2018-04-17T10:52:18.510Z,2671.88
2018-04-17T10:53:18.707Z,2385.00
2018-04-17T10:54:18.898Z,2171.25
2018-04-17T10:55:19.115Z,2036.25
2018-04-17T10:56:19.280Z,1906.88
2018-04-17T10:57:19.475Z,1839.38
2018-04-17T10:58:19.669Z,1766.25
2018-04-17T10:59:19.856Z,1631.25
2018-04-17T11:00:20.050Z,1518.75
2018-04-17T11:01:20.240Z,1468.13
2018-04-17T11:02:20.436Z,1417.50
2018-04-17T11:03:20.690Z,1389.38
2018-04-17T11:04:20.836Z,1366.88
2018-04-17T11:05:21.037Z,1350.00
2018-04-17T11:06:21.223Z,1355.63
2018-04-17T11:07:21.425Z,1355.63
2018-04-17T11:08:21.618Z,1321.88
2018-04-17T11:09:21.811Z,1321.88
2018-04-17T11:10:22.002Z,1310.63
2018-04-17T11:11:22.206Z,1305.00
2018-04-17T11:12:22.401Z,1316.25
2018-04-17T11:13:22.594Z,1316.25
2018-04-17T11:14:22.784Z,1293.75
2018-04-17T11:15:22.979Z,1265.63
2018-04-17T11:16:23.173Z,1254.38
2018-04-17T11:17:23.364Z,1293.75
2018-04-17T11:18:23.560Z,1305.00
2018-04-17T11:19:23.753Z,1299.38
2018-04-17T11:20:23.947Z,1316.25
2018-04-17T11:21:24.137Z,1305.00
2018-04-17T11:22:24.340Z,1288.13
2018-04-17T11:23:24.535Z,1288.13
2018-04-17T11:24:24.738Z,1276.88
2018-04-17T11:25:24.935Z,1288.13
2018-04-17T11:26:25.127Z,1316.25
2018-04-17T11:27:25.334Z,1350.00
2018-04-17T11:28:25.533Z,1338.75
2018-04-17T11:29:25.736Z,1361.25
2018-04-17T11:30:25.924Z,1327.50
2018-04-17T11:31:26.113Z,1361.25
2018-04-17T11:32:26.303Z,1372.50
2018-04-17T11:33:26.519Z,1355.63
2018-04-17T11:34:26.700Z,1366.88
2018-04-17T11:35:26.904Z,1344.38
2018-04-17T11:36:27.091Z,1293.75
2018-04-17T11:37:27.292Z,1293.75
2018-04-17T11:38:27.481Z,1333.13
2018-04-17T11:42:34.071Z,1338.75
2018-04-17T11:43:34.083Z,1321.88
2018-04-17T11:44:35.054Z,1316.25
2018-04-17T11:45:34.514Z,1265.63
2018-04-17T11:46:34.731Z,1209.38
2018-04-17T11:47:34.931Z,1305.00
2018-04-17T11:48:35.129Z,1310.63
2018-04-17T11:49:35.310Z,1344.38
2018-04-17T11:50:35.508Z,1299.38
2018-04-17T11:51:35.704Z,1327.50
2018-04-17T11:52:35.917Z,1293.75
2018-04-17T11:53:36.116Z,1254.38
2018-04-17T11:54:36.312Z,1361.25
2018-04-17T11:55:36.505Z,1366.88
2018-04-17T11:56:36.699Z,1355.63
2018-04-17T11:57:37.002Z,1305.00
2018-04-17T11:58:37.080Z,1260.00
2018-04-17T11:59:37.291Z,1316.25
2018-04-17T12:00:37.456Z,1378.13
2018-04-17T12:01:37.649Z,1406.25
2018-04-17T12:02:37.853Z,1383.75
2018-04-17T12:03:38.040Z,1372.50
2018-04-17T12:04:38.222Z,1350.00
2018-04-17T12:06:31.546Z,1327.50
2018-04-17T12:07:31.743Z,1378.13
2018-04-17T12:08:31.945Z,1361.25
2018-04-17T12:09:35.047Z,1372.50
2018-04-17T12:10:34.642Z,1400.63
2018-04-17T12:11:35.088Z,1406.25
2018-04-17T12:12:33.491Z,1406.25
2018-04-17T12:13:33.739Z,1400.63
2018-04-17T12:14:33.325Z,1406.25
2018-04-17T12:15:34.385Z,1400.63
2018-04-17T12:16:33.956Z,1400.63
2018-04-17T12:17:33.673Z,1417.50
2018-04-17T12:18:35.155Z,1411.88
2018-04-17T12:19:34.376Z,1338.75
2018-04-17T12:20:35.014Z,1372.50
2018-04-17T12:21:35.183Z,1299.38
2018-04-17T12:22:35.437Z,1434.38
2018-04-17T12:24:35.410Z,1462.50
2018-04-17T12:25:35.514Z,1462.50
2018-04-17T12:26:35.640Z,1411.88
2018-04-17T12:27:35.850Z,1350.00
2018-04-17T12:28:36.251Z,1299.38
2018-04-17T12:29:36.798Z,1141.88
2018-04-17T12:30:36.409Z,1192.50
2018-04-17T12:31:36.603Z,1288.13
2018-04-17T12:32:36.793Z,1158.75
2018-04-17T12:33:37.048Z,967.50
2018-04-17T12:34:37.244Z,1035.00
2018-04-17T12:35:37.434Z,1164.38
2018-04-17T12:36:37.615Z,1046.25
2018-04-17T12:37:37.813Z,1029.38
2018-04-17T12:38:38.005Z,933.75
2018-04-17T12:39:38.219Z,736.88
2018-04-17T12:40:38.377Z,815.63
2018-04-17T12:41:38.569Z,905.63
2018-04-17T12:42:38.758Z,1400.63
2018-04-17T12:43:39.005Z,1305.00
2018-04-17T12:44:39.159Z,1164.38
2018-04-17T12:45:39.345Z,1237.50
2018-04-17T12:46:41.916Z,1479.38
2018-04-17T12:47:39.783Z,1479.38
2018-04-17T12:48:39.976Z,1513.13
2018-04-17T12:49:40.186Z,1462.50
2018-04-17T12:50:40.384Z,1603.13